sensor_id;sensor_type;location;lat;lon;timestamp;temperature;humidity
30063;DHT22;16889;67.864;24.990;2023-08-17T00:03:31;12.60;99.90
30063;DHT22;16889;67.864;24.990;2023-08-17T00:08:17;12.50;99.90
30063;DHT22;16889;67.864;24.990;2023-08-17T00:13:04;12.50;99.90
30063;DHT22;16889;67.864;24.990;2023-08-17T00:17:50;12.50;99.90
30063;DHT22;16889;67.864;24.990;2023-08-17T00:22:38;12.50;99.90
30063;DHT22;16889;67.864;24.990;2023-08-17T00:27:24;12.50;99.90
30063;DHT22;16889;67.864;24.990;2023-08-17T00:32:10;12.60;99.90
30063;DHT22;16889;67.864;24.990;2023-08-17T00:36:56;12.60;99.90
30063;DHT22;16889;67.864;24.990;2023-08-17T00:41:44;12.80;99.90
30063;DHT22;16889;67.864;24.990;2023-08-17T00:46:31;12.70;99.90
30063;DHT22;16889;67.864;24.990;2023-08-17T00:51:17;12.80;99.90
30063;DHT22;16889;67.864;24.990;2023-08-17T00:56:06;12.70;99.90
30063;DHT22;16889;67.864;24.990;2023-08-17T01:00:52;12.70;99.90
30063;DHT22;16889;67.864;24.990;2023-08-17T01:05:38;12.70;99.90
30063;DHT22;16889;67.864;24.990;2023-08-17T01:11:09;12.60;99.90
30063;DHT22;16889;67.864;24.990;2023-08-17T01:15:39;12.50;99.90
30063;DHT22;16889;67.864;24.990;2023-08-17T01:20:26;12.50;99.90
30063;DHT22;16889;67.864;24.990;2023-08-17T01:25:16;12.50;99.90
30063;DHT22;16889;67.864;24.990;2023-08-17T01:30:03;12.50;99.90
30063;DHT22;16889;67.864;24.990;2023-08-17T01:34:57;12.40;99.90
30063;DHT22;16889;67.864;24.990;2023-08-17T01:39:51;12.30;99.90
30063;DHT22;16889;67.864;24.990;2023-08-17T01:44:38;12.20;99.90
30063;DHT22;16889;67.864;24.990;2023-08-17T01:49:25;12.20;99.90
30063;DHT22;16889;67.864;24.990;2023-08-17T01:54:11;12.20;99.90
30063;DHT22;16889;67.864;24.990;2023-08-17T01:58:57;12.00;99.90
30063;DHT22;16889;67.864;24.990;2023-08-17T02:03:43;11.90;99.90
30063;DHT22;16889;67.864;24.990;2023-08-17T02:08:30;11.80;99.90
30063;DHT22;16889;67.864;24.990;2023-08-17T02:13:16;11.70;99.90
30063;DHT22;16889;67.864;24.990;2023-08-17T02:18:02;11.70;99.90
30063;DHT22;16889;67.864;24.990;2023-08-17T02:22:51;11.60;99.90
30063;DHT22;16889;67.864;24.990;2023-08-17T02:27:37;11.80;99.90
30063;DHT22;16889;67.864;24.990;2023-08-17T02:32:23;11.80;99.90
30063;DHT22;16889;67.864;24.990;2023-08-17T02:37:09;11.90;99.90
30063;DHT22;16889;67.864;24.990;2023-08-17T02:41:55;11.80;99.90
30063;DHT22;16889;67.864;24.990;2023-08-17T02:46:41;11.80;99.90
30063;DHT22;16889;67.864;24.990;2023-08-17T02:51:27;11.80;99.90
30063;DHT22;16889;67.864;24.990;2023-08-17T02:56:13;11.70;99.90
30063;DHT22;16889;67.864;24.990;2023-08-17T03:01:02;11.70;99.90
30063;DHT22;16889;67.864;24.990;2023-08-17T03:05:48;11.70;99.90
30063;DHT22;16889;67.864;24.990;2023-08-17T03:10:34;11.60;99.90
30063;DHT22;16889;67.864;24.990;2023-08-17T03:15:20;11.60;99.90
30063;DHT22;16889;67.864;24.990;2023-08-17T03:20:06;11.70;99.90
30063;DHT22;16889;67.864;24.990;2023-08-17T03:24:55;11.70;99.90
30063;DHT22;16889;67.864;24.990;2023-08-17T03:29:41;11.90;99.90
30063;DHT22;16889;67.864;24.990;2023-08-17T03:34:27;11.80;99.90
30063;DHT22;16889;67.864;24.990;2023-08-17T03:39:12;11.80;99.90
30063;DHT22;16889;67.864;24.990;2023-08-17T03:43:58;11.80;99.90
30063;DHT22;16889;67.864;24.990;2023-08-17T03:48:44;11.80;99.90
30063;DHT22;16889;67.864;24.990;2023-08-17T03:53:30;11.80;99.90
30063;DHT22;16889;67.864;24.990;2023-08-17T03:58:18;11.80;99.90
30063;DHT22;16889;67.864;24.990;2023-08-17T04:03:04;11.80;99.90
30063;DHT22;16889;67.864;24.990;2023-08-17T04:07:50;11.90;99.90
30063;DHT22;16889;67.864;24.990;2023-08-17T04:12:36;11.80;99.90
30063;DHT22;16889;67.864;24.990;2023-08-17T04:17:21;11.80;99.90
30063;DHT22;16889;67.864;24.990;2023-08-17T04:22:10;11.80;99.90
30063;DHT22;16889;67.864;24.990;2023-08-17T04:26:55;11.80;99.90
30063;DHT22;16889;67.864;24.990;2023-08-17T04:31:41;11.70;99.90
30063;DHT22;16889;67.864;24.990;2023-08-17T04:36:27;11.90;99.90
30063;DHT22;16889;67.864;24.990;2023-08-17T04:41:13;11.80;99.90
30063;DHT22;16889;67.864;24.990;2023-08-17T04:45:59;12.00;99.90
30063;DHT22;16889;67.864;24.990;2023-08-17T04:50:45;11.80;99.90
30063;DHT22;16889;67.864;24.990;2023-08-17T04:55:31;12.00;99.90
30063;DHT22;16889;67.864;24.990;2023-08-17T05:00:20;12.00;99.90
30063;DHT22;16889;67.864;24.990;2023-08-17T05:05:11;11.90;99.90
30063;DHT22;16889;67.864;24.990;2023-08-17T05:09:57;12.00;99.90
30063;DHT22;16889;67.864;24.990;2023-08-17T05:14:43;12.00;99.90
30063;DHT22;16889;67.864;24.990;2023-08-17T05:19:28;12.20;99.90
30063;DHT22;16889;67.864;24.990;2023-08-17T05:24:14;12.20;99.90
30063;DHT22;16889;67.864;24.990;2023-08-17T05:29:00;12.30;99.90
30063;DHT22;16889;67.864;24.990;2023-08-17T05:33:46;12.30;99.90
30063;DHT22;16889;67.864;24.990;2023-08-17T05:38:35;12.30;99.90
30063;DHT22;16889;67.864;24.990;2023-08-17T05:43:21;12.30;99.90
30063;DHT22;16889;67.864;24.990;2023-08-17T05:48:07;12.20;99.90
30063;DHT22;16889;67.864;24.990;2023-08-17T05:52:54;12.10;99.90
30063;DHT22;16889;67.864;24.990;2023-08-17T05:57:40;12.10;99.90
30063;DHT22;16889;67.864;24.990;2023-08-17T06:02:26;12.30;99.90
30063;DHT22;16889;67.864;24.990;2023-08-17T06:07:12;12.50;99.90
30063;DHT22;16889;67.864;24.990;2023-08-17T06:11:58;12.50;99.90
30063;DHT22;16889;67.864;24.990;2023-08-17T06:16:44;12.90;99.90
30063;DHT22;16889;67.864;24.990;2023-08-17T06:21:30;13.10;99.90
30063;DHT22;16889;67.864;24.990;2023-08-17T06:26:16;13.10;99.90
30063;DHT22;16889;67.864;24.990;2023-08-17T06:31:02;13.20;99.90
30063;DHT22;16889;67.864;24.990;2023-08-17T06:35:49;13.30;99.90
30063;DHT22;16889;67.864;24.990;2023-08-17T06:40:35;13.60;99.90
30063;DHT22;16889;67.864;24.990;2023-08-17T06:45:21;13.80;99.90
30063;DHT22;16889;67.864;24.990;2023-08-17T06:50:08;13.50;99.90
30063;DHT22;16889;67.864;24.990;2023-08-17T06:54:56;13.50;99.90
30063;DHT22;16889;67.864;24.990;2023-08-17T06:59:42;13.80;99.90
30063;DHT22;16889;67.864;24.990;2023-08-17T07:04:31;14.40;99.90
30063;DHT22;16889;67.864;24.990;2023-08-17T07:09:17;13.90;99.90
30063;DHT22;16889;67.864;24.990;2023-08-17T07:14:04;13.40;99.90
30063;DHT22;16889;67.864;24.990;2023-08-17T07:18:51;13.80;99.90
30063;DHT22;16889;67.864;24.990;2023-08-17T07:23:58;14.00;99.90
30063;DHT22;16889;67.864;24.990;2023-08-17T07:28:56;13.80;99.90
30063;DHT22;16889;67.864;24.990;2023-08-17T07:33:42;14.40;99.90
30063;DHT22;16889;67.864;24.990;2023-08-17T07:38:28;15.10;99.90
30063;DHT22;16889;67.864;24.990;2023-08-17T07:43:14;15.00;99.90
30063;DHT22;16889;67.864;24.990;2023-08-17T07:48:00;14.70;99.90
30063;DHT22;16889;67.864;24.990;2023-08-17T07:52:46;14.40;99.90
30063;DHT22;16889;67.864;24.990;2023-08-17T07:57:32;14.40;99.90
30063;DHT22;16889;67.864;24.990;2023-08-17T08:02:18;14.90;99.90
30063;DHT22;16889;67.864;24.990;2023-08-17T08:07:04;14.70;99.90
30063;DHT22;16889;67.864;24.990;2023-08-17T08:11:50;14.50;99.90
30063;DHT22;16889;67.864;24.990;2023-08-17T08:16:36;14.60;99.90
30063;DHT22;16889;67.864;24.990;2023-08-17T08:21:22;15.30;99.90
30063;DHT22;16889;67.864;24.990;2023-08-17T08:26:08;16.90;99.90
30063;DHT22;16889;67.864;24.990;2023-08-17T08:30:54;16.60;99.90
30063;DHT22;16889;67.864;24.990;2023-08-17T08:35:40;15.60;99.90
30063;DHT22;16889;67.864;24.990;2023-08-17T08:40:28;15.30;99.90
30063;DHT22;16889;67.864;24.990;2023-08-17T08:45:14;15.20;99.90
30063;DHT22;16889;67.864;24.990;2023-08-17T08:50:02;14.70;99.90
30063;DHT22;16889;67.864;24.990;2023-08-17T08:54:50;14.50;99.90
30063;DHT22;16889;67.864;24.990;2023-08-17T08:59:37;14.30;99.90
30063;DHT22;16889;67.864;24.990;2023-08-17T09:04:29;14.60;99.90
30063;DHT22;16889;67.864;24.990;2023-08-17T09:09:15;14.30;99.90
30063;DHT22;16889;67.864;24.990;2023-08-17T09:14:02;14.10;99.90
30063;DHT22;16889;67.864;24.990;2023-08-17T09:18:53;14.60;99.90
30063;DHT22;16889;67.864;24.990;2023-08-17T09:23:39;14.80;99.90
30063;DHT22;16889;67.864;24.990;2023-08-17T09:28:25;14.80;99.90
30063;DHT22;16889;67.864;24.990;2023-08-17T09:33:11;14.30;99.90
30063;DHT22;16889;67.864;24.990;2023-08-17T09:37:57;14.20;99.90
30063;DHT22;16889;67.864;24.990;2023-08-17T09:42:44;14.30;99.90
30063;DHT22;16889;67.864;24.990;2023-08-17T09:47:30;14.40;99.90
30063;DHT22;16889;67.864;24.990;2023-08-17T09:52:16;14.60;99.90
30063;DHT22;16889;67.864;24.990;2023-08-17T09:57:02;14.80;99.90
30063;DHT22;16889;67.864;24.990;2023-08-17T10:01:49;15.30;99.90
30063;DHT22;16889;67.864;24.990;2023-08-17T10:06:36;15.40;99.90
30063;DHT22;16889;67.864;24.990;2023-08-17T10:11:30;16.90;99.90
30063;DHT22;16889;67.864;24.990;2023-08-17T10:16:27;17.20;99.90
30063;DHT22;16889;67.864;24.990;2023-08-17T10:21:28;17.50;99.90
30063;DHT22;16889;67.864;24.990;2023-08-17T10:26:15;16.90;99.90
30063;DHT22;16889;67.864;24.990;2023-08-17T10:31:01;17.30;99.90
30063;DHT22;16889;67.864;24.990;2023-08-17T10:35:47;15.90;99.90
30063;DHT22;16889;67.864;24.990;2023-08-17T10:40:39;14.80;99.90
30063;DHT22;16889;67.864;24.990;2023-08-17T10:45:31;14.70;99.90
30063;DHT22;16889;67.864;24.990;2023-08-17T10:50:24;15.10;99.90
30063;DHT22;16889;67.864;24.990;2023-08-17T10:55:10;15.20;99.90
30063;DHT22;16889;67.864;24.990;2023-08-17T11:00:15;15.20;99.90
30063;DHT22;16889;67.864;24.990;2023-08-17T11:05:02;15.30;99.90
30063;DHT22;16889;67.864;24.990;2023-08-17T11:09:49;15.50;99.90
30063;DHT22;16889;67.864;24.990;2023-08-17T11:14:35;15.80;99.90
30063;DHT22;16889;67.864;24.990;2023-08-17T11:19:21;15.40;99.90
30063;DHT22;16889;67.864;24.990;2023-08-17T11:24:10;15.20;99.90
30063;DHT22;16889;67.864;24.990;2023-08-17T11:28:56;15.00;99.90
30063;DHT22;16889;67.864;24.990;2023-08-17T11:33:42;15.30;99.90
30063;DHT22;16889;67.864;24.990;2023-08-17T11:43:19;16.00;99.90
30063;DHT22;16889;67.864;24.990;2023-08-17T11:48:06;15.70;99.90
30063;DHT22;16889;67.864;24.990;2023-08-17T11:52:52;15.20;99.90
30063;DHT22;16889;67.864;24.990;2023-08-17T11:57:39;15.20;99.90
30063;DHT22;16889;67.864;24.990;2023-08-17T12:02:26;15.40;99.90
30063;DHT22;16889;67.864;24.990;2023-08-17T12:07:12;15.10;99.90
30063;DHT22;16889;67.864;24.990;2023-08-17T12:12:01;14.90;99.90
30063;DHT22;16889;67.864;24.990;2023-08-17T12:16:48;15.10;99.90
30063;DHT22;16889;67.864;24.990;2023-08-17T12:21:34;15.50;99.90
30063;DHT22;16889;67.864;24.990;2023-08-17T12:26:21;15.80;99.90
30063;DHT22;16889;67.864;24.990;2023-08-17T12:31:07;15.60;99.90
30063;DHT22;16889;67.864;24.990;2023-08-17T12:35:53;16.00;99.90
30063;DHT22;16889;67.864;24.990;2023-08-17T12:40:39;16.20;99.90
30063;DHT22;16889;67.864;24.990;2023-08-17T12:45:25;16.10;99.30
30063;DHT22;16889;67.864;24.990;2023-08-17T12:50:12;15.90;99.90
30063;DHT22;16889;67.864;24.990;2023-08-17T12:54:58;16.00;99.70
30063;DHT22;16889;67.864;24.990;2023-08-17T12:59:44;16.00;99.90
30063;DHT22;16889;67.864;24.990;2023-08-17T13:04:31;16.10;99.90
30063;DHT22;16889;67.864;24.990;2023-08-17T13:09:38;16.20;99.90
30063;DHT22;16889;67.864;24.990;2023-08-17T13:14:24;16.00;99.90
30063;DHT22;16889;67.864;24.990;2023-08-17T13:19:10;15.90;99.90
30063;DHT22;16889;67.864;24.990;2023-08-17T13:24:12;15.90;99.90
30063;DHT22;16889;67.864;24.990;2023-08-17T13:29:01;15.80;99.90
30063;DHT22;16889;67.864;24.990;2023-08-17T13:33:47;15.30;99.90
30063;DHT22;16889;67.864;24.990;2023-08-17T13:38:33;15.30;99.90
30063;DHT22;16889;67.864;24.990;2023-08-17T13:43:19;15.50;99.90
30063;DHT22;16889;67.864;24.990;2023-08-17T13:48:06;15.90;99.90
30063;DHT22;16889;67.864;24.990;2023-08-17T13:52:55;16.00;99.20
30063;DHT22;16889;67.864;24.990;2023-08-17T13:57:45;16.00;99.90
30063;DHT22;16889;67.864;24.990;2023-08-17T14:02:47;16.00;99.50
30063;DHT22;16889;67.864;24.990;2023-08-17T14:07:33;16.30;99.90
30063;DHT22;16889;67.864;24.990;2023-08-17T14:12:19;16.10;99.80
30063;DHT22;16889;67.864;24.990;2023-08-17T14:17:04;15.30;99.20
30063;DHT22;16889;67.864;24.990;2023-08-17T14:21:50;15.00;99.90
30063;DHT22;16889;67.864;24.990;2023-08-17T14:26:41;15.10;99.90
30063;DHT22;16889;67.864;24.990;2023-08-17T14:31:27;15.10;99.90
30063;DHT22;16889;67.864;24.990;2023-08-17T14:36:17;14.60;99.90
30063;DHT22;16889;67.864;24.990;2023-08-17T14:41:03;15.00;99.90
30063;DHT22;16889;67.864;24.990;2023-08-17T14:45:50;15.50;99.90
30063;DHT22;16889;67.864;24.990;2023-08-17T14:50:36;15.40;99.50
30063;DHT22;16889;67.864;24.990;2023-08-17T14:55:22;15.30;99.80
30063;DHT22;16889;67.864;24.990;2023-08-17T15:00:08;15.30;99.70
30063;DHT22;16889;67.864;24.990;2023-08-17T15:04:54;15.20;99.90
30063;DHT22;16889;67.864;24.990;2023-08-17T15:09:40;14.80;99.90
30063;DHT22;16889;67.864;24.990;2023-08-17T15:14:26;14.40;99.90
30063;DHT22;16889;67.864;24.990;2023-08-17T15:19:12;14.50;99.90
30063;DHT22;16889;67.864;24.990;2023-08-17T15:23:58;14.60;99.90
30063;DHT22;16889;67.864;24.990;2023-08-17T15:28:45;14.60;99.90
30063;DHT22;16889;67.864;24.990;2023-08-17T15:33:31;14.50;99.90
30063;DHT22;16889;67.864;24.990;2023-08-17T15:38:17;14.40;99.90
30063;DHT22;16889;67.864;24.990;2023-08-17T15:43:03;14.30;99.90
30063;DHT22;16889;67.864;24.990;2023-08-17T15:47:49;14.30;99.90
30063;DHT22;16889;67.864;24.990;2023-08-17T15:52:35;14.30;99.90
30063;DHT22;16889;67.864;24.990;2023-08-17T15:57:22;14.30;99.90
30063;DHT22;16889;67.864;24.990;2023-08-17T16:02:07;14.30;99.90
30063;DHT22;16889;67.864;24.990;2023-08-17T16:06:54;14.30;99.90
30063;DHT22;16889;67.864;24.990;2023-08-17T16:11:40;14.40;99.90
30063;DHT22;16889;67.864;24.990;2023-08-17T16:16:26;14.40;99.90
30063;DHT22;16889;67.864;24.990;2023-08-17T16:21:12;14.30;99.90
30063;DHT22;16889;67.864;24.990;2023-08-17T16:25:58;14.10;99.90
30063;DHT22;16889;67.864;24.990;2023-08-17T16:30:44;14.00;99.90
30063;DHT22;16889;67.864;24.990;2023-08-17T16:35:30;14.00;99.90
30063;DHT22;16889;67.864;24.990;2023-08-17T16:40:16;13.90;99.90
30063;DHT22;16889;67.864;24.990;2023-08-17T16:45:02;13.80;99.90
30063;DHT22;16889;67.864;24.990;2023-08-17T16:49:49;13.70;99.90
30063;DHT22;16889;67.864;24.990;2023-08-17T16:54:34;13.70;99.90
30063;DHT22;16889;67.864;24.990;2023-08-17T16:59:20;13.70;99.90
30063;DHT22;16889;67.864;24.990;2023-08-17T17:04:06;13.70;99.90
30063;DHT22;16889;67.864;24.990;2023-08-17T17:08:52;13.40;99.90
30063;DHT22;16889;67.864;24.990;2023-08-17T17:13:39;13.30;99.90
30063;DHT22;16889;67.864;24.990;2023-08-17T17:18:25;13.10;99.90
30063;DHT22;16889;67.864;24.990;2023-08-17T17:23:11;13.10;99.90
30063;DHT22;16889;67.864;24.990;2023-08-17T17:27:57;13.00;99.90
30063;DHT22;16889;67.864;24.990;2023-08-17T17:32:43;13.00;99.90
30063;DHT22;16889;67.864;24.990;2023-08-17T17:37:29;12.90;99.90
30063;DHT22;16889;67.864;24.990;2023-08-17T17:42:15;12.70;99.90
30063;DHT22;16889;67.864;24.990;2023-08-17T17:47:01;12.60;99.90
30063;DHT22;16889;67.864;24.990;2023-08-17T17:51:47;12.40;99.90
30063;DHT22;16889;67.864;24.990;2023-08-17T17:56:40;12.30;99.90
30063;DHT22;16889;67.864;24.990;2023-08-17T18:01:26;12.20;99.90
30063;DHT22;16889;67.864;24.990;2023-08-17T18:06:12;12.10;99.90
30063;DHT22;16889;67.864;24.990;2023-08-17T18:10:58;11.90;99.90
30063;DHT22;16889;67.864;24.990;2023-08-17T18:15:44;11.40;99.90
30063;DHT22;16889;67.864;24.990;2023-08-17T18:20:31;11.20;99.90
30063;DHT22;16889;67.864;24.990;2023-08-17T18:25:17;10.90;99.90
30063;DHT22;16889;67.864;24.990;2023-08-17T18:30:03;10.60;99.90
30063;DHT22;16889;67.864;24.990;2023-08-17T18:34:53;10.40;99.90
30063;DHT22;16889;67.864;24.990;2023-08-17T18:39:39;10.20;99.90
30063;DHT22;16889;67.864;24.990;2023-08-17T18:44:25;10.10;99.90
30063;DHT22;16889;67.864;24.990;2023-08-17T18:49:11;9.70;99.90
30063;DHT22;16889;67.864;24.990;2023-08-17T18:53:57;9.40;99.90
30063;DHT22;16889;67.864;24.990;2023-08-17T18:58:42;9.20;99.90
30063;DHT22;16889;67.864;24.990;2023-08-17T19:03:28;9.20;99.90
30063;DHT22;16889;67.864;24.990;2023-08-17T19:08:15;9.20;99.90
30063;DHT22;16889;67.864;24.990;2023-08-17T19:13:01;9.00;99.90
30063;DHT22;16889;67.864;24.990;2023-08-17T19:17:48;8.80;99.90
30063;DHT22;16889;67.864;24.990;2023-08-17T19:22:34;8.60;99.90
30063;DHT22;16889;67.864;24.990;2023-08-17T19:27:20;8.40;99.90
30063;DHT22;16889;67.864;24.990;2023-08-17T19:32:06;8.20;99.90
30063;DHT22;16889;67.864;24.990;2023-08-17T19:36:52;8.10;99.90
30063;DHT22;16889;67.864;24.990;2023-08-17T19:41:38;7.90;99.90
30063;DHT22;16889;67.864;24.990;2023-08-17T19:46:30;7.70;99.90
30063;DHT22;16889;67.864;24.990;2023-08-17T19:51:16;7.50;99.90
30063;DHT22;16889;67.864;24.990;2023-08-17T19:56:02;7.40;99.90
30063;DHT22;16889;67.864;24.990;2023-08-17T20:00:49;7.30;99.90
30063;DHT22;16889;67.864;24.990;2023-08-17T20:05:34;7.20;99.90
30063;DHT22;16889;67.864;24.990;2023-08-17T20:10:20;7.10;99.90
30063;DHT22;16889;67.864;24.990;2023-08-17T20:15:07;7.00;99.90
30063;DHT22;16889;67.864;24.990;2023-08-17T20:19:53;6.90;99.90
30063;DHT22;16889;67.864;24.990;2023-08-17T20:24:39;6.70;99.90
30063;DHT22;16889;67.864;24.990;2023-08-17T20:29:25;6.70;99.90
30063;DHT22;16889;67.864;24.990;2023-08-17T20:34:11;6.60;99.90
30063;DHT22;16889;67.864;24.990;2023-08-17T20:39:05;6.40;99.90
30063;DHT22;16889;67.864;24.990;2023-08-17T20:43:52;6.30;99.90
30063;DHT22;16889;67.864;24.990;2023-08-17T20:48:38;6.20;99.90
30063;DHT22;16889;67.864;24.990;2023-08-17T20:53:24;5.90;99.90
30063;DHT22;16889;67.864;24.990;2023-08-17T20:58:10;5.80;99.90
30063;DHT22;16889;67.864;24.990;2023-08-17T21:02:57;5.80;99.90
30063;DHT22;16889;67.864;24.990;2023-08-17T21:07:43;5.60;99.90
30063;DHT22;16889;67.864;24.990;2023-08-17T21:12:29;5.50;99.90
30063;DHT22;16889;67.864;24.990;2023-08-17T21:17:15;5.30;99.90
30063;DHT22;16889;67.864;24.990;2023-08-17T21:22:01;5.20;99.90
30063;DHT22;16889;67.864;24.990;2023-08-17T21:26:47;5.10;99.90
30063;DHT22;16889;67.864;24.990;2023-08-17T21:31:33;5.00;99.90
30063;DHT22;16889;67.864;24.990;2023-08-17T21:36:19;4.90;99.90
30063;DHT22;16889;67.864;24.990;2023-08-17T21:41:05;4.90;99.90
30063;DHT22;16889;67.864;24.990;2023-08-17T21:45:56;4.80;99.90
30063;DHT22;16889;67.864;24.990;2023-08-17T21:50:42;4.90;99.90
30063;DHT22;16889;67.864;24.990;2023-08-17T21:55:28;4.80;99.90
30063;DHT22;16889;67.864;24.990;2023-08-17T22:00:14;4.70;99.90
30063;DHT22;16889;67.864;24.990;2023-08-17T22:05:00;4.60;99.90
30063;DHT22;16889;67.864;24.990;2023-08-17T22:09:46;4.70;99.90
30063;DHT22;16889;67.864;24.990;2023-08-17T22:14:33;4.80;99.90
30063;DHT22;16889;67.864;24.990;2023-08-17T22:19:19;4.80;99.90
30063;DHT22;16889;67.864;24.990;2023-08-17T22:24:05;4.70;99.90
30063;DHT22;16889;67.864;24.990;2023-08-17T22:28:51;4.60;99.90
30063;DHT22;16889;67.864;24.990;2023-08-17T22:33:37;4.60;99.90
30063;DHT22;16889;67.864;24.990;2023-08-17T22:38:23;4.60;99.90
30063;DHT22;16889;67.864;24.990;2023-08-17T22:43:08;4.60;99.90
30063;DHT22;16889;67.864;24.990;2023-08-17T22:47:54;4.50;99.90
30063;DHT22;16889;67.864;24.990;2023-08-17T22:52:40;4.40;99.90
30063;DHT22;16889;67.864;24.990;2023-08-17T22:57:26;4.30;99.90
30063;DHT22;16889;67.864;24.990;2023-08-17T23:02:12;4.20;99.90
30063;DHT22;16889;67.864;24.990;2023-08-17T23:06:58;4.10;99.90
30063;DHT22;16889;67.864;24.990;2023-08-17T23:11:44;4.00;99.90
30063;DHT22;16889;67.864;24.990;2023-08-17T23:16:30;4.00;99.90
30063;DHT22;16889;67.864;24.990;2023-08-17T23:21:16;3.80;99.90
30063;DHT22;16889;67.864;24.990;2023-08-17T23:26:02;3.80;99.90
30063;DHT22;16889;67.864;24.990;2023-08-17T23:30:47;3.60;99.90
30063;DHT22;16889;67.864;24.990;2023-08-17T23:35:34;3.50;99.90
30063;DHT22;16889;67.864;24.990;2023-08-17T23:40:20;3.40;99.90
30063;DHT22;16889;67.864;24.990;2023-08-17T23:45:07;3.40;99.90
30063;DHT22;16889;67.864;24.990;2023-08-17T23:49:54;3.30;99.90
30063;DHT22;16889;67.864;24.990;2023-08-17T23:54:39;3.30;99.90
30063;DHT22;16889;67.864;24.990;2023-08-17T23:59:25;3.20;99.90
